createdAt,value
2018-07-10T00:00:32.253Z,98.40
2018-07-10T00:04:12.962Z,96.00
2018-07-10T00:06:58.435Z,96.40
2018-07-10T00:09:38.615Z,95.90
2018-07-10T00:12:07.881Z,95.60
2018-07-10T00:14:37.818Z,95.90
2018-07-10T00:17:07.683Z,95.60
2018-07-10T00:19:36.555Z,95.00
2018-07-10T00:22:06.881Z,95.10
2018-07-10T00:24:36.615Z,95.20
2018-07-10T00:27:07.378Z,94.60
2018-07-10T00:29:38.947Z,94.90
2018-07-10T00:32:08.654Z,94.70
2018-07-10T00:34:38.441Z,94.50
2018-07-10T00:39:37.419Z,94.10
2018-07-10T00:42:06.808Z,94.50
2018-07-10T00:44:36.038Z,94.40
2018-07-10T00:47:05.554Z,94.30
2018-07-10T00:49:36.019Z,94.70
2018-07-10T00:52:05.914Z,94.80
2018-07-10T00:54:35.366Z,94.70
2018-07-10T00:57:05.305Z,94.50
2018-07-10T00:59:35.661Z,94.90
2018-07-10T01:02:06.426Z,95.20
2018-07-10T01:04:36.731Z,95.30
2018-07-10T01:07:06.771Z,95.50
2018-07-10T01:09:37.594Z,96.40
2018-07-10T01:12:07.927Z,95.60
2018-07-10T01:14:38.732Z,95.60
2018-07-10T01:17:09.162Z,96.00
2018-07-10T01:19:39.438Z,96.00
2018-07-10T01:22:08.882Z,96.40
2018-07-10T01:24:38.578Z,96.70
2018-07-10T01:27:08.122Z,97.00
2018-07-10T01:29:43.744Z,97.40
2018-07-10T01:32:12.830Z,97.80
2018-07-10T01:34:43.115Z,98.30
2018-07-10T01:37:13.170Z,99.00
2018-07-10T01:39:43.694Z,98.50
2018-07-10T01:42:13.702Z,97.90
2018-07-10T01:44:44.228Z,97.90
2018-07-10T01:47:14.642Z,98.30
2018-07-10T01:49:45.243Z,98.60
2018-07-10T01:52:15.134Z,97.60
2018-07-10T01:54:45.838Z,97.90
2018-07-10T01:57:15.978Z,97.70
2018-07-10T01:59:46.830Z,97.10
2018-07-10T02:02:17.699Z,97.30
2018-07-10T02:04:48.438Z,97.80
2018-07-10T02:07:19.419Z,97.80
2018-07-10T02:09:49.274Z,97.90
2018-07-10T02:12:19.924Z,98.30
2018-07-10T02:14:49.354Z,98.10
2018-07-10T02:17:18.823Z,98.40
2018-07-10T02:19:48.222Z,98.10
2018-07-10T02:22:18.225Z,98.50
2018-07-10T02:24:50.010Z,98.00
2018-07-10T02:27:19.502Z,97.70
2018-07-10T02:29:49.324Z,97.70
2018-07-10T02:32:19.790Z,98.00
2018-07-10T02:34:48.970Z,97.40
2018-07-10T02:37:18.535Z,97.70
2018-07-10T02:39:48.827Z,97.60
2018-07-10T02:42:19.559Z,97.50
2018-07-10T02:44:49.921Z,97.70
2018-07-10T02:47:19.535Z,97.70
2018-07-10T02:49:50.752Z,98.00
2018-07-10T02:52:22.755Z,98.20
2018-07-10T02:54:53.806Z,98.30
2018-07-10T02:57:24.847Z,98.50
2018-07-10T02:59:54.450Z,98.80
2018-07-10T03:02:26.148Z,99.00
2018-07-10T03:05:02.750Z,99.00
2018-07-10T03:07:33.445Z,98.70
2018-07-10T03:10:04.591Z,99.00
2018-07-10T03:12:36.723Z,98.80
2018-07-10T03:15:11.614Z,99.00
2018-07-10T03:17:40.822Z,99.10
2018-07-10T03:20:11.514Z,99.10
2018-07-10T03:22:41.830Z,99.20
2018-07-10T03:25:11.358Z,99.40
2018-07-10T03:27:42.607Z,99.80
2018-07-10T03:30:13.137Z,99.40
2018-07-10T03:32:43.006Z,99.30
2018-07-10T03:35:12.699Z,99.10
2018-07-10T03:37:43.448Z,99.40
2018-07-10T03:40:14.014Z,99.00
2018-07-10T03:42:44.614Z,99.30
2018-07-10T03:45:15.451Z,99.50
2018-07-10T03:47:46.707Z,99.80
2018-07-10T03:50:17.482Z,99.80
2018-07-10T03:52:48.118Z,99.60
2018-07-10T03:55:21.296Z,99.60
2018-07-10T03:57:54.638Z,99.70
2018-07-10T04:00:25.807Z,99.80
2018-07-10T04:02:57.223Z,99.80
2018-07-10T04:05:27.616Z,99.40
2018-07-10T04:07:58.442Z,99.40
2018-07-10T04:10:33.158Z,99.60
2018-07-10T04:13:08.695Z,98.90
2018-07-10T04:15:39.679Z,98.30
2018-07-10T04:18:12.811Z,97.90
2018-07-10T04:20:55.031Z,97.60
2018-07-10T04:23:29.507Z,97.50
2018-07-10T04:26:00.770Z,97.60
2018-07-10T04:28:34.791Z,98.00
2018-07-10T04:31:22.837Z,97.00
2018-07-10T04:33:53.477Z,96.50
2018-07-10T04:36:24.191Z,96.80
2018-07-10T04:38:56.007Z,97.20
2018-07-10T04:41:31.914Z,97.30
2018-07-10T04:44:08.969Z,97.00
2018-07-10T04:46:57.523Z,97.10
2018-07-10T04:49:31.743Z,97.00
2018-07-10T04:52:11.690Z,96.80
2018-07-10T04:54:52.474Z,97.10
2018-07-10T04:57:27.578Z,96.60
2018-07-10T04:59:59.550Z,96.50
2018-07-10T05:02:30.315Z,96.00
2018-07-10T05:05:00.730Z,95.80
2018-07-10T05:10:01.595Z,95.50
2018-07-10T05:12:32.494Z,95.50
2018-07-10T05:15:02.641Z,95.30
2018-07-10T05:17:31.557Z,95.50
2018-07-10T05:20:00.848Z,95.30
2018-07-10T05:22:31.629Z,95.50
2018-07-10T05:25:00.870Z,95.30
2018-07-10T05:27:32.071Z,95.60
2018-07-10T05:30:02.225Z,95.70
2018-07-10T05:32:32.670Z,95.60
2018-07-10T05:35:03.519Z,95.90
2018-07-10T05:37:37.749Z,96.00
2018-07-10T05:40:12.334Z,96.40
2018-07-10T05:42:49.645Z,96.10
2018-07-10T05:45:22.814Z,96.30
2018-07-10T05:47:56.494Z,95.60
2018-07-10T05:50:30.423Z,95.90
2018-07-10T05:53:00.503Z,95.70
2018-07-10T05:55:32.378Z,95.90
2018-07-10T05:58:03.137Z,95.30
2018-07-10T06:00:33.902Z,95.30
2018-07-10T06:03:04.450Z,95.60
2018-07-10T06:05:34.726Z,95.70
2018-07-10T06:08:04.671Z,95.40
2018-07-10T06:10:34.547Z,95.00
2018-07-10T06:15:36.179Z,94.50
2018-07-10T06:18:06.754Z,93.50
2018-07-10T06:20:36.769Z,93.30
2018-07-10T06:23:07.718Z,93.70
2018-07-10T06:25:38.535Z,93.30
2018-07-10T06:28:21.191Z,93.60
2018-07-10T06:30:51.626Z,93.80
2018-07-10T06:33:28.050Z,93.10
2018-07-10T06:36:36.163Z,92.80
2018-07-10T06:39:08.402Z,93.10
2018-07-10T06:41:45.502Z,93.20
2018-07-10T06:44:17.386Z,93.60
2018-07-10T06:46:49.597Z,93.10
2018-07-10T06:49:23.874Z,93.10
2018-07-10T06:54:31.790Z,93.00
2018-07-10T06:57:07.439Z,92.80
2018-07-10T07:02:09.442Z,92.30
2018-07-10T07:04:39.056Z,92.50
2018-07-10T07:07:09.479Z,91.90
2018-07-10T07:09:39.847Z,92.00
2018-07-10T07:12:10.103Z,92.20
2018-07-10T07:14:41.572Z,92.50
2018-07-10T07:17:11.415Z,92.50
2018-07-10T07:19:42.202Z,92.70
2018-07-10T07:22:12.118Z,92.70
2018-07-10T07:24:43.455Z,93.10
2018-07-10T07:27:15.567Z,92.40
2018-07-10T07:29:46.586Z,92.50
2018-07-10T07:32:17.078Z,92.20
2018-07-10T07:34:46.771Z,92.60
2018-07-10T07:37:19.498Z,91.60
2018-07-10T07:39:49.224Z,91.90
2018-07-10T07:42:19.043Z,91.90
2018-07-10T07:44:50.304Z,92.60
2018-07-10T07:47:28.247Z,91.90
2018-07-10T07:49:59.314Z,90.80
2018-07-10T07:52:31.294Z,90.70
2018-07-10T07:55:02.820Z,90.90
2018-07-10T07:57:33.950Z,91.30
2018-07-10T08:00:03.915Z,91.30
2018-07-10T08:02:34.698Z,91.00
2018-07-10T08:05:04.442Z,91.40
2018-07-10T08:07:34.853Z,91.30
2018-07-10T08:10:05.010Z,91.70
2018-07-10T08:12:35.258Z,91.80
2018-07-10T08:15:06.770Z,91.50
2018-07-10T08:20:07.707Z,91.60
2018-07-10T08:22:38.891Z,91.60
2018-07-10T08:25:08.692Z,91.40
2018-07-10T08:27:39.245Z,92.00
2018-07-10T08:30:10.007Z,91.10
2018-07-10T08:32:39.635Z,91.50
2018-07-10T08:35:10.426Z,91.90
2018-07-10T08:37:40.310Z,92.30
2018-07-10T08:40:10.266Z,92.20
2018-07-10T08:42:41.406Z,91.80
2018-07-10T08:45:13.890Z,92.50
2018-07-10T08:47:45.497Z,92.60
2018-07-10T08:50:17.347Z,93.20
2018-07-10T08:52:47.759Z,94.10
2018-07-10T08:55:18.386Z,94.10
2018-07-10T08:57:48.506Z,93.90
2018-07-10T09:00:19.414Z,94.00
2018-07-10T09:02:50.574Z,94.40
2018-07-10T09:05:20.551Z,94.40
2018-07-10T09:07:49.720Z,95.00
2018-07-10T09:10:20.098Z,95.20
2018-07-10T09:12:50.063Z,94.90
2018-07-10T09:15:20.131Z,95.30
2018-07-10T09:17:49.798Z,96.20
2018-07-10T09:20:27.486Z,96.60
2018-07-10T09:22:57.972Z,95.60
2018-07-10T09:25:28.375Z,95.80
2018-07-10T09:27:58.896Z,95.10
2018-07-10T09:30:29.606Z,96.30
2018-07-10T09:33:00.009Z,94.90
2018-07-10T09:35:30.643Z,94.60
2018-07-10T09:38:01.706Z,94.90
2018-07-10T09:40:31.356Z,94.20
2018-07-10T09:43:04.392Z,93.70
2018-07-10T09:45:36.282Z,95.10
2018-07-10T09:48:08.593Z,94.80
2018-07-10T09:50:39.815Z,94.90
2018-07-10T09:53:10.127Z,94.50
2018-07-10T09:55:40.771Z,94.50
2018-07-10T09:58:11.327Z,94.20
2018-07-10T10:00:46.906Z,94.40
2018-07-10T10:03:17.643Z,93.40
2018-07-10T10:05:48.082Z,93.10
2018-07-10T10:08:19.822Z,93.40
2018-07-10T10:10:50.023Z,93.00
2018-07-10T10:13:19.242Z,92.40
2018-07-10T10:18:25.371Z,92.80
2018-07-10T10:20:54.858Z,92.90
2018-07-10T10:23:24.689Z,92.20
2018-07-10T10:25:54.927Z,92.60
2018-07-10T10:28:26.149Z,92.40
2018-07-10T10:30:56.170Z,92.40
2018-07-10T10:33:26.026Z,92.30
2018-07-10T10:35:55.934Z,92.10
2018-07-10T10:38:26.182Z,92.40
2018-07-10T10:40:57.866Z,92.10
2018-07-10T10:43:28.771Z,92.10
2018-07-10T10:45:59.444Z,92.50
2018-07-10T10:48:29.750Z,92.50
2018-07-10T10:51:00.024Z,91.80
2018-07-10T10:53:30.859Z,92.00
2018-07-10T10:58:32.391Z,92.30
2018-07-10T11:01:03.006Z,92.60
2018-07-10T11:03:32.434Z,92.60
2018-07-10T11:06:02.179Z,92.50
2018-07-10T11:08:33.623Z,92.50
2018-07-10T11:11:04.778Z,92.20
2018-07-10T11:13:35.602Z,92.60
2018-07-10T11:16:04.979Z,92.50
2018-07-10T11:18:38.230Z,92.50
2018-07-10T11:21:17.650Z,92.50
2018-07-10T11:23:55.675Z,92.30
2018-07-10T11:26:26.931Z,92.40
2018-07-10T11:28:56.962Z,92.50
2018-07-10T11:31:27.016Z,92.80
2018-07-10T11:33:56.841Z,93.00
2018-07-10T11:36:27.642Z,93.10
2018-07-10T11:39:03.428Z,93.40
2018-07-10T11:41:34.046Z,93.70
2018-07-10T11:44:06.986Z,94.00
2018-07-10T11:46:36.451Z,94.30
2018-07-10T11:49:07.418Z,94.80
2018-07-10T11:51:38.269Z,95.00
2018-07-10T11:54:07.882Z,95.20
2018-07-10T11:56:37.803Z,95.50
2018-07-10T11:59:08.622Z,96.10
2018-07-10T12:01:38.505Z,96.50
2018-07-10T12:04:08.755Z,97.00
2018-07-10T12:09:13.652Z,97.70
2018-07-10T12:11:44.711Z,98.30
2018-07-10T12:14:15.012Z,98.60
2018-07-10T12:19:15.575Z,98.90
2018-07-10T12:21:45.926Z,98.60
2018-07-10T12:24:15.562Z,98.80
2018-07-10T12:26:44.658Z,98.00
2018-07-10T12:29:15.881Z,98.00
2018-07-10T12:31:45.878Z,97.50
2018-07-10T12:34:15.825Z,96.40
2018-07-10T12:36:45.890Z,96.60
2018-07-10T12:39:15.542Z,96.20
2018-07-10T12:41:45.959Z,96.30
2018-07-10T12:44:16.606Z,94.70
2018-07-10T12:46:47.770Z,94.60
2018-07-10T12:49:17.905Z,94.10
2018-07-10T12:51:48.030Z,94.40
2018-07-10T12:54:17.589Z,94.50
2018-07-10T12:56:48.440Z,95.20
2018-07-10T12:59:18.720Z,95.50
2018-07-10T13:01:52.801Z,94.60
2018-07-10T13:04:22.967Z,95.00
2018-07-10T13:06:56.851Z,94.60
2018-07-10T13:09:27.045Z,94.20
2018-07-10T13:14:26.542Z,94.30
2018-07-10T13:16:55.765Z,93.90
2018-07-10T13:19:26.553Z,93.60
2018-07-10T13:21:56.034Z,93.90
2018-07-10T13:24:26.976Z,94.30
2018-07-10T13:26:57.254Z,93.70
2018-07-10T13:29:26.828Z,91.90
2018-07-10T13:34:25.440Z,90.90
2018-07-10T13:36:56.682Z,91.50
2018-07-10T13:39:27.966Z,91.80
2018-07-10T13:41:57.767Z,91.40
2018-07-10T13:44:27.350Z,91.70
2018-07-10T13:46:57.182Z,90.40
2018-07-10T13:49:26.856Z,90.10
2018-07-10T13:51:57.877Z,90.40
2018-07-10T13:54:28.398Z,89.30
2018-07-10T13:56:59.474Z,90.20
2018-07-10T13:59:29.257Z,90.80
2018-07-10T14:01:59.979Z,91.10
2018-07-10T14:04:31.799Z,92.30
2018-07-10T14:07:01.995Z,92.30
2018-07-10T14:09:32.575Z,92.50
2018-07-10T14:12:02.779Z,92.50
2018-07-10T14:14:33.495Z,93.00
2018-07-10T14:17:03.826Z,91.80
2018-07-10T14:19:33.987Z,90.60
2018-07-10T14:22:04.950Z,90.70
2018-07-10T14:24:34.462Z,91.20
2018-07-10T14:27:04.978Z,91.20
2018-07-10T14:29:35.591Z,91.40
2018-07-10T14:32:05.152Z,91.10
2018-07-10T14:34:34.995Z,91.40
2018-07-10T14:37:04.935Z,91.80
2018-07-10T14:39:34.743Z,91.70
2018-07-10T14:42:05.879Z,91.60
2018-07-10T14:47:07.605Z,92.10
2018-07-10T14:49:37.868Z,92.50
2018-07-10T14:52:07.941Z,92.10
2018-07-10T14:54:38.835Z,91.30
2018-07-10T14:57:09.630Z,90.10
2018-07-10T14:59:39.889Z,90.40
2018-07-10T15:02:10.334Z,90.90
2018-07-10T15:04:39.934Z,91.80
2018-07-10T15:07:10.662Z,92.50
2018-07-10T15:09:39.923Z,92.60
2018-07-10T15:12:09.109Z,92.90
2018-07-10T15:14:39.470Z,91.70
2018-07-10T15:17:14.087Z,90.30
2018-07-10T15:19:44.063Z,89.20
2018-07-10T15:22:14.626Z,89.40
2018-07-10T15:24:44.778Z,91.00
2018-07-10T15:27:14.708Z,92.00
2018-07-10T15:29:44.198Z,94.00
2018-07-10T15:32:14.015Z,95.40
2018-07-10T15:34:43.793Z,95.70
2018-07-10T15:37:14.574Z,97.40
2018-07-10T15:39:44.534Z,98.40
2018-07-10T15:42:16.354Z,98.60
2018-07-10T15:44:46.394Z,99.00
2018-07-10T15:47:17.567Z,99.40
2018-07-10T15:49:47.752Z,99.20
2018-07-10T15:52:17.348Z,94.70
2018-07-10T15:54:46.968Z,94.70
2018-07-10T15:59:45.410Z,83.70
2018-07-10T16:02:15.640Z,79.60
2018-07-10T16:04:46.748Z,76.40
2018-07-10T16:07:17.692Z,77.10
2018-07-10T16:09:47.773Z,76.50
2018-07-10T16:12:18.534Z,76.60
2018-07-10T16:14:50.685Z,76.10
2018-07-10T16:17:23.598Z,74.90
2018-07-10T16:19:58.826Z,75.60
2018-07-10T16:22:29.527Z,81.40
2018-07-10T16:25:06.938Z,86.00
2018-07-10T16:27:46.263Z,86.80
2018-07-10T16:30:18.874Z,90.30
2018-07-10T16:32:48.650Z,92.50
2018-07-10T16:35:21.863Z,94.50
2018-07-10T16:37:51.763Z,95.20
2018-07-10T16:40:21.766Z,93.70
2018-07-10T16:42:53.890Z,94.30
2018-07-10T16:45:28.770Z,95.10
2018-07-10T16:48:16.218Z,92.70
2018-07-10T16:50:59.018Z,93.00
2018-07-10T16:53:34.466Z,81.40
2018-07-10T16:56:04.889Z,82.10
2018-07-10T16:58:39.952Z,77.20
2018-07-10T17:01:10.533Z,68.70
2018-07-10T17:03:40.006Z,65.60
2018-07-10T17:06:10.054Z,62.60
2018-07-10T17:08:39.287Z,63.60
2018-07-10T17:13:37.406Z,63.60
2018-07-10T17:16:07.291Z,65.00
2018-07-10T17:18:36.902Z,66.00
2018-07-10T17:21:06.778Z,66.10
2018-07-10T17:23:36.509Z,64.50
2018-07-10T17:26:11.309Z,63.70
2018-07-10T17:28:43.410Z,64.50
2018-07-10T17:31:13.310Z,63.60
2018-07-10T17:33:43.473Z,64.30
2018-07-10T17:36:13.852Z,64.80
2018-07-10T17:38:45.409Z,63.20
2018-07-10T17:41:16.874Z,62.30
2018-07-10T17:46:16.806Z,61.50
2018-07-10T17:48:47.567Z,60.50
2018-07-10T17:51:17.406Z,60.60
2018-07-10T17:53:46.590Z,61.40
2018-07-10T17:56:16.080Z,61.40
2018-07-10T17:58:47.293Z,61.60
2018-07-10T18:01:18.276Z,60.40
2018-07-10T18:03:49.925Z,61.00
2018-07-10T18:06:20.295Z,60.20
2018-07-10T18:08:52.595Z,58.60
2018-07-10T18:11:22.516Z,59.30
2018-07-10T18:13:54.154Z,59.80
2018-07-10T18:16:28.096Z,60.50
2018-07-10T18:18:57.982Z,60.10
2018-07-10T18:21:28.069Z,60.20
2018-07-10T18:23:57.890Z,61.00
2018-07-10T18:26:28.659Z,61.80
2018-07-10T18:28:59.058Z,62.60
2018-07-10T18:31:30.211Z,63.50
2018-07-10T18:34:01.257Z,64.20
2018-07-10T18:36:34.740Z,64.70
2018-07-10T18:39:04.742Z,65.50
2018-07-10T18:41:35.366Z,65.50
2018-07-10T18:44:06.051Z,65.20
2018-07-10T18:46:36.736Z,66.00
2018-07-10T18:49:06.685Z,65.70
2018-07-10T18:51:36.593Z,66.20
2018-07-10T18:54:06.335Z,66.60
2018-07-10T18:56:35.853Z,67.20
2018-07-10T18:59:07.444Z,68.10
2018-07-10T19:01:47.757Z,69.00
2018-07-10T19:04:17.687Z,69.50
2018-07-10T19:06:48.214Z,69.00
2018-07-10T19:09:32.462Z,69.40
2018-07-10T19:12:05.220Z,69.50
2018-07-10T19:14:34.939Z,70.00
2018-07-10T19:17:08.381Z,69.50
2018-07-10T19:19:39.081Z,70.10
2018-07-10T19:22:13.299Z,69.70
2018-07-10T19:24:44.497Z,69.40
2018-07-10T19:29:56.521Z,68.70
2018-07-10T19:32:27.002Z,69.90
2018-07-10T19:35:00.774Z,69.00
2018-07-10T19:37:33.492Z,69.20
2018-07-10T19:40:03.023Z,70.00
2018-07-10T19:42:34.372Z,69.70
2018-07-10T19:45:05.306Z,70.10
2018-07-10T19:47:34.974Z,70.10
2018-07-10T19:50:09.935Z,70.80
2018-07-10T19:52:40.756Z,71.30
2018-07-10T19:55:11.475Z,71.50
2018-07-10T19:58:06.945Z,71.60
2018-07-10T20:00:41.686Z,72.40
2018-07-10T20:03:12.974Z,73.10
2018-07-10T20:05:43.741Z,73.50
2018-07-10T20:08:15.993Z,73.70
2018-07-10T20:10:54.426Z,74.60
2018-07-10T20:13:37.334Z,74.70
2018-07-10T20:16:13.425Z,75.10
2018-07-10T20:18:58.875Z,75.20
2018-07-10T20:22:37.514Z,76.00
2018-07-10T20:25:18.679Z,76.90
2018-07-10T20:27:56.346Z,76.60
2018-07-10T20:30:37.695Z,77.30
2018-07-10T20:33:12.557Z,78.00
2018-07-10T20:35:50.492Z,77.70
2018-07-10T20:40:51.370Z,77.00
2018-07-10T20:43:22.131Z,77.70
2018-07-10T20:45:53.883Z,76.30
2018-07-10T20:48:33.931Z,77.10
2018-07-10T20:51:10.383Z,76.70
2018-07-10T20:53:45.819Z,77.20
2018-07-10T20:56:28.566Z,77.90
2018-07-10T20:59:40.135Z,77.60
2018-07-10T21:02:39.151Z,77.50
2018-07-10T21:05:12.102Z,78.40
2018-07-10T21:07:57.767Z,78.90
2018-07-10T21:10:32.527Z,79.00
2018-07-10T21:13:09.504Z,79.50
2018-07-10T21:16:52.846Z,80.10
2018-07-10T21:19:45.897Z,79.70
2018-07-10T21:22:24.705Z,80.20
2018-07-10T21:25:04.569Z,80.50
2018-07-10T21:28:47.152Z,81.40
2018-07-10T21:31:28.834Z,81.80
2018-07-10T21:34:40.060Z,82.70
2018-07-10T21:38:18.866Z,83.30
2018-07-10T21:42:02.594Z,84.70
2018-07-10T21:45:42.982Z,84.80
2018-07-10T21:48:18.731Z,86.80
2018-07-10T21:50:50.943Z,87.40
2018-07-10T21:53:21.682Z,88.00
2018-07-10T21:55:51.669Z,87.50
2018-07-10T21:58:22.182Z,88.10
2018-07-10T22:02:03.576Z,88.70
2018-07-10T22:04:34.958Z,89.10
2018-07-10T22:07:08.503Z,89.80
2018-07-10T22:09:38.726Z,89.80
2018-07-10T22:12:10.758Z,89.90
2018-07-10T22:14:40.866Z,89.90
2018-07-10T22:17:26.819Z,89.10
2018-07-10T22:19:58.442Z,89.80
2018-07-10T22:22:30.663Z,90.30
2018-07-10T22:25:03.714Z,90.00
2018-07-10T22:27:34.710Z,89.90
2018-07-10T22:30:10.562Z,90.30
2018-07-10T22:32:45.730Z,90.40
2018-07-10T22:35:16.374Z,90.10
2018-07-10T22:37:45.769Z,90.40
2018-07-10T22:40:16.570Z,90.80
2018-07-10T22:42:46.424Z,91.30
2018-07-10T22:45:18.731Z,91.30
2018-07-10T22:47:48.905Z,91.10
2018-07-10T22:50:21.134Z,91.10
2018-07-10T22:52:59.516Z,91.80
2018-07-10T22:55:32.342Z,91.80
2018-07-10T22:58:06.306Z,91.90
2018-07-10T23:00:38.152Z,91.90
2018-07-10T23:03:20.796Z,91.80
2018-07-10T23:05:51.402Z,91.70
2018-07-10T23:08:28.040Z,91.60
2018-07-10T23:11:01.388Z,91.50
2018-07-10T23:13:32.710Z,91.80
2018-07-10T23:16:01.886Z,91.90
2018-07-10T23:18:32.488Z,92.00
2018-07-10T23:21:02.649Z,91.80
2018-07-10T23:23:32.119Z,92.20
2018-07-10T23:26:02.415Z,92.40
2018-07-10T23:28:33.073Z,92.70
2018-07-10T23:31:04.490Z,93.00
2018-07-10T23:33:35.039Z,92.80
2018-07-10T23:36:07.513Z,93.10
2018-07-10T23:38:46.654Z,93.10
2018-07-10T23:41:31.434Z,93.40
2018-07-10T23:44:02.158Z,93.80
2018-07-10T23:46:41.765Z,94.40
2018-07-10T23:49:15.209Z,94.20
2018-07-10T23:51:56.455Z,94.20
2018-07-10T23:54:26.422Z,94.00
2018-07-10T23:56:56.336Z,94.00
2018-07-10T23:59:26.497Z,93.90
